sensor_id;sensor_type;location;lat;lon;timestamp;P1;durP1;ratioP1;P2;durP2;ratioP2
72427;SDS011;60419;48.880;18.036;2023-04-03T00:01:24;4.70;;;2.65;;
72427;SDS011;60419;48.880;18.036;2023-04-03T00:04:09;4.22;;;2.90;;
72427;SDS011;60419;48.880;18.036;2023-04-03T00:06:55;4.20;;;2.60;;
72427;SDS011;60419;48.880;18.036;2023-04-03T00:09:40;4.50;;;3.03;;
72427;SDS011;60419;48.880;18.036;2023-04-03T00:12:26;3.88;;;2.53;;
72427;SDS011;60419;48.880;18.036;2023-04-03T00:15:11;3.80;;;2.65;;
72427;SDS011;60419;48.880;18.036;2023-04-03T00:17:57;5.20;;;3.25;;
72427;SDS011;60419;48.880;18.036;2023-04-03T00:20:42;4.25;;;2.60;;
72427;SDS011;60419;48.880;18.036;2023-04-03T00:23:28;3.95;;;2.55;;
72427;SDS011;60419;48.880;18.036;2023-04-03T00:26:13;3.65;;;2.30;;
72427;SDS011;60419;48.880;18.036;2023-04-03T00:28:59;3.85;;;2.53;;
72427;SDS011;60419;48.880;18.036;2023-04-03T00:31:44;4.43;;;2.65;;
72427;SDS011;60419;48.880;18.036;2023-04-03T00:34:30;4.82;;;2.90;;
72427;SDS011;60419;48.880;18.036;2023-04-03T00:37:15;4.22;;;2.60;;
72427;SDS011;60419;48.880;18.036;2023-04-03T00:40:01;3.88;;;2.50;;
72427;SDS011;60419;48.880;18.036;2023-04-03T00:42:48;4.50;;;2.72;;
72427;SDS011;60419;48.880;18.036;2023-04-03T00:45:37;4.38;;;2.78;;
72427;SDS011;60419;48.880;18.036;2023-04-03T00:48:34;4.03;;;2.50;;
72427;SDS011;60419;48.880;18.036;2023-04-03T00:51:24;3.92;;;2.38;;
72427;SDS011;60419;48.880;18.036;2023-04-03T00:54:11;4.28;;;2.65;;
72427;SDS011;60419;48.880;18.036;2023-04-03T00:56:57;3.90;;;2.55;;
72427;SDS011;60419;48.880;18.036;2023-04-03T00:59:44;3.92;;;2.50;;
72427;SDS011;60419;48.880;18.036;2023-04-03T01:02:34;4.30;;;3.10;;
72427;SDS011;60419;48.880;18.036;2023-04-03T01:05:20;4.85;;;3.10;;
72427;SDS011;60419;48.880;18.036;2023-04-03T01:08:06;4.43;;;3.00;;
72427;SDS011;60419;48.880;18.036;2023-04-03T01:10:52;5.47;;;3.03;;
72427;SDS011;60419;48.880;18.036;2023-04-03T01:13:38;4.80;;;3.00;;
72427;SDS011;60419;48.880;18.036;2023-04-03T01:16:24;4.55;;;3.10;;
72427;SDS011;60419;48.880;18.036;2023-04-03T01:19:11;3.67;;;2.90;;
72427;SDS011;60419;48.880;18.036;2023-04-03T01:22:21;4.07;;;2.85;;
72427;SDS011;60419;48.880;18.036;2023-04-03T01:25:16;3.97;;;2.72;;
72427;SDS011;60419;48.880;18.036;2023-04-03T01:28:02;3.95;;;2.70;;
72427;SDS011;60419;48.880;18.036;2023-04-03T01:34:12;3.95;;;2.78;;
72427;SDS011;60419;48.880;18.036;2023-04-03T01:36:57;4.78;;;2.78;;
72427;SDS011;60419;48.880;18.036;2023-04-03T01:39:43;5.20;;;3.30;;
72427;SDS011;60419;48.880;18.036;2023-04-03T01:42:28;4.47;;;2.70;;
72427;SDS011;60419;48.880;18.036;2023-04-03T01:45:14;3.90;;;2.70;;
72427;SDS011;60419;48.880;18.036;2023-04-03T01:48:00;4.47;;;2.90;;
72427;SDS011;60419;48.880;18.036;2023-04-03T01:50:45;4.00;;;2.58;;
72427;SDS011;60419;48.880;18.036;2023-04-03T01:53:31;4.82;;;2.80;;
72427;SDS011;60419;48.880;18.036;2023-04-03T01:56:16;5.25;;;2.95;;
72427;SDS011;60419;48.880;18.036;2023-04-03T01:59:02;4.55;;;3.03;;
72427;SDS011;60419;48.880;18.036;2023-04-03T02:01:47;3.80;;;2.80;;
72427;SDS011;60419;48.880;18.036;2023-04-03T02:04:33;4.15;;;2.80;;
72427;SDS011;60419;48.880;18.036;2023-04-03T02:07:18;4.70;;;2.80;;
72427;SDS011;60419;48.880;18.036;2023-04-03T02:10:04;3.75;;;2.63;;
72427;SDS011;60419;48.880;18.036;2023-04-03T02:12:50;4.65;;;2.50;;
72427;SDS011;60419;48.880;18.036;2023-04-03T02:15:37;3.25;;;2.10;;
72427;SDS011;60419;48.880;18.036;2023-04-03T02:18:23;3.05;;;1.90;;
72427;SDS011;60419;48.880;18.036;2023-04-03T02:21:09;3.88;;;2.45;;
72427;SDS011;60419;48.880;18.036;2023-04-03T02:23:54;3.13;;;1.90;;
72427;SDS011;60419;48.880;18.036;2023-04-03T02:26:40;4.05;;;2.22;;
72427;SDS011;60419;48.880;18.036;2023-04-03T02:29:25;3.97;;;2.70;;
72427;SDS011;60419;48.880;18.036;2023-04-03T02:32:10;3.65;;;2.25;;
72427;SDS011;60419;48.880;18.036;2023-04-03T02:34:56;4.20;;;2.30;;
72427;SDS011;60419;48.880;18.036;2023-04-03T02:37:41;3.97;;;2.17;;
72427;SDS011;60419;48.880;18.036;2023-04-03T02:40:27;3.60;;;2.30;;
72427;SDS011;60419;48.880;18.036;2023-04-03T02:43:12;4.07;;;2.22;;
72427;SDS011;60419;48.880;18.036;2023-04-03T02:45:57;3.75;;;2.47;;
72427;SDS011;60419;48.880;18.036;2023-04-03T02:48:43;3.75;;;2.45;;
72427;SDS011;60419;48.880;18.036;2023-04-03T02:51:28;3.30;;;2.10;;
72427;SDS011;60419;48.880;18.036;2023-04-03T02:54:14;3.55;;;2.30;;
72427;SDS011;60419;48.880;18.036;2023-04-03T02:56:59;4.60;;;2.88;;
72427;SDS011;60419;48.880;18.036;2023-04-03T02:59:45;4.40;;;2.78;;
72427;SDS011;60419;48.880;18.036;2023-04-03T03:02:30;6.72;;;3.00;;
72427;SDS011;60419;48.880;18.036;2023-04-03T03:05:16;4.13;;;2.80;;
72427;SDS011;60419;48.880;18.036;2023-04-03T03:08:02;4.75;;;2.30;;
72427;SDS011;60419;48.880;18.036;2023-04-03T03:10:47;4.57;;;3.03;;
72427;SDS011;60419;48.880;18.036;2023-04-03T03:13:33;4.95;;;2.83;;
72427;SDS011;60419;48.880;18.036;2023-04-03T03:16:19;4.38;;;2.75;;
72427;SDS011;60419;48.880;18.036;2023-04-03T03:19:05;5.10;;;3.15;;
72427;SDS011;60419;48.880;18.036;2023-04-03T03:21:52;4.68;;;3.05;;
72427;SDS011;60419;48.880;18.036;2023-04-03T03:24:38;4.88;;;3.05;;
72427;SDS011;60419;48.880;18.036;2023-04-03T03:27:23;4.13;;;2.75;;
72427;SDS011;60419;48.880;18.036;2023-04-03T03:30:09;4.82;;;2.90;;
72427;SDS011;60419;48.880;18.036;2023-04-03T03:32:55;4.40;;;2.55;;
72427;SDS011;60419;48.880;18.036;2023-04-03T03:35:40;6.68;;;3.15;;
72427;SDS011;60419;48.880;18.036;2023-04-03T03:38:26;4.47;;;3.10;;
72427;SDS011;60419;48.880;18.036;2023-04-03T03:41:12;4.10;;;2.40;;
72427;SDS011;60419;48.880;18.036;2023-04-03T03:43:57;3.30;;;2.20;;
72427;SDS011;60419;48.880;18.036;2023-04-03T03:46:43;5.22;;;2.65;;
72427;SDS011;60419;48.880;18.036;2023-04-03T03:49:28;4.78;;;2.60;;
72427;SDS011;60419;48.880;18.036;2023-04-03T03:52:14;4.93;;;3.33;;
72427;SDS011;60419;48.880;18.036;2023-04-03T03:54:59;3.13;;;2.42;;
72427;SDS011;60419;48.880;18.036;2023-04-03T03:57:45;3.53;;;2.45;;
72427;SDS011;60419;48.880;18.036;2023-04-03T04:00:30;4.18;;;2.90;;
72427;SDS011;60419;48.880;18.036;2023-04-03T04:03:16;3.28;;;2.40;;
72427;SDS011;60419;48.880;18.036;2023-04-03T04:06:01;4.38;;;2.60;;
72427;SDS011;60419;48.880;18.036;2023-04-03T04:08:46;4.75;;;2.50;;
72427;SDS011;60419;48.880;18.036;2023-04-03T04:11:32;4.95;;;3.00;;
72427;SDS011;60419;48.880;18.036;2023-04-03T04:14:18;4.70;;;3.20;;
72427;SDS011;60419;48.880;18.036;2023-04-03T04:17:05;4.60;;;2.50;;
72427;SDS011;60419;48.880;18.036;2023-04-03T04:19:50;4.43;;;2.90;;
72427;SDS011;60419;48.880;18.036;2023-04-03T04:22:36;4.05;;;2.72;;
72427;SDS011;60419;48.880;18.036;2023-04-03T04:25:22;4.43;;;2.85;;
72427;SDS011;60419;48.880;18.036;2023-04-03T04:28:08;5.07;;;3.10;;
72427;SDS011;60419;48.880;18.036;2023-04-03T04:30:53;3.75;;;2.67;;
72427;SDS011;60419;48.880;18.036;2023-04-03T04:33:38;4.85;;;3.20;;
72427;SDS011;60419;48.880;18.036;2023-04-03T04:36:24;5.20;;;2.97;;
72427;SDS011;60419;48.880;18.036;2023-04-03T04:39:10;4.70;;;3.17;;
72427;SDS011;60419;48.880;18.036;2023-04-03T04:41:55;5.55;;;3.40;;
72427;SDS011;60419;48.880;18.036;2023-04-03T04:44:40;4.55;;;3.28;;
72427;SDS011;60419;48.880;18.036;2023-04-03T04:47:27;6.13;;;3.28;;
72427;SDS011;60419;48.880;18.036;2023-04-03T04:50:13;5.38;;;3.00;;
72427;SDS011;60419;48.880;18.036;2023-04-03T04:52:59;6.13;;;3.70;;
72427;SDS011;60419;48.880;18.036;2023-04-03T04:55:44;4.55;;;3.47;;
72427;SDS011;60419;48.880;18.036;2023-04-03T04:58:29;5.72;;;3.42;;
72427;SDS011;60419;48.880;18.036;2023-04-03T05:01:15;7.60;;;4.32;;
72427;SDS011;60419;48.880;18.036;2023-04-03T05:04:00;5.28;;;3.58;;
72427;SDS011;60419;48.880;18.036;2023-04-03T05:06:46;5.88;;;3.60;;
72427;SDS011;60419;48.880;18.036;2023-04-03T05:09:31;5.75;;;3.55;;
72427;SDS011;60419;48.880;18.036;2023-04-03T05:12:17;6.75;;;3.70;;
72427;SDS011;60419;48.880;18.036;2023-04-03T05:15:02;6.72;;;3.97;;
72427;SDS011;60419;48.880;18.036;2023-04-03T05:17:48;5.63;;;3.13;;
72427;SDS011;60419;48.880;18.036;2023-04-03T05:20:34;6.22;;;3.75;;
72427;SDS011;60419;48.880;18.036;2023-04-03T05:23:20;5.03;;;3.55;;
72427;SDS011;60419;48.880;18.036;2023-04-03T05:26:06;5.57;;;3.78;;
72427;SDS011;60419;48.880;18.036;2023-04-03T05:28:52;8.85;;;5.28;;
72427;SDS011;60419;48.880;18.036;2023-04-03T05:31:37;7.25;;;5.13;;
72427;SDS011;60419;48.880;18.036;2023-04-03T05:34:22;8.52;;;5.45;;
72427;SDS011;60419;48.880;18.036;2023-04-03T05:37:08;8.45;;;5.40;;
72427;SDS011;60419;48.880;18.036;2023-04-03T05:39:53;7.93;;;5.45;;
72427;SDS011;60419;48.880;18.036;2023-04-03T05:42:39;8.73;;;5.40;;
72427;SDS011;60419;48.880;18.036;2023-04-03T05:45:25;7.30;;;5.38;;
72427;SDS011;60419;48.880;18.036;2023-04-03T05:48:10;9.25;;;5.63;;
72427;SDS011;60419;48.880;18.036;2023-04-03T05:50:56;9.07;;;6.00;;
72427;SDS011;60419;48.880;18.036;2023-04-03T05:53:42;6.80;;;5.38;;
72427;SDS011;60419;48.880;18.036;2023-04-03T05:56:28;7.43;;;5.35;;
72427;SDS011;60419;48.880;18.036;2023-04-03T05:59:14;9.45;;;5.85;;
72427;SDS011;60419;48.880;18.036;2023-04-03T06:01:59;9.20;;;5.85;;
72427;SDS011;60419;48.880;18.036;2023-04-03T06:04:46;9.15;;;5.32;;
72427;SDS011;60419;48.880;18.036;2023-04-03T06:07:32;8.02;;;5.50;;
72427;SDS011;60419;48.880;18.036;2023-04-03T06:10:18;7.95;;;5.43;;
72427;SDS011;60419;48.880;18.036;2023-04-03T06:13:05;10.38;;;5.85;;
72427;SDS011;60419;48.880;18.036;2023-04-03T06:15:50;9.15;;;5.22;;
72427;SDS011;60419;48.880;18.036;2023-04-03T06:18:36;8.13;;;5.55;;
72427;SDS011;60419;48.880;18.036;2023-04-03T06:21:21;9.38;;;5.35;;
72427;SDS011;60419;48.880;18.036;2023-04-03T06:24:07;7.95;;;5.28;;
72427;SDS011;60419;48.880;18.036;2023-04-03T06:26:53;10.38;;;5.57;;
72427;SDS011;60419;48.880;18.036;2023-04-03T06:29:38;6.50;;;4.75;;
72427;SDS011;60419;48.880;18.036;2023-04-03T06:32:23;6.63;;;4.32;;
72427;SDS011;60419;48.880;18.036;2023-04-03T06:35:09;7.72;;;4.15;;
72427;SDS011;60419;48.880;18.036;2023-04-03T06:37:54;6.82;;;4.38;;
72427;SDS011;60419;48.880;18.036;2023-04-03T06:40:40;8.07;;;4.70;;
72427;SDS011;60419;48.880;18.036;2023-04-03T06:43:25;6.75;;;4.57;;
72427;SDS011;60419;48.880;18.036;2023-04-03T06:46:15;7.78;;;4.93;;
72427;SDS011;60419;48.880;18.036;2023-04-03T06:49:01;5.77;;;4.07;;
72427;SDS011;60419;48.880;18.036;2023-04-03T06:51:46;7.70;;;4.57;;
72427;SDS011;60419;48.880;18.036;2023-04-03T06:54:32;8.57;;;4.10;;
72427;SDS011;60419;48.880;18.036;2023-04-03T06:57:17;5.57;;;3.42;;
72427;SDS011;60419;48.880;18.036;2023-04-03T07:00:04;7.65;;;3.70;;
72427;SDS011;60419;48.880;18.036;2023-04-03T07:02:50;7.20;;;4.03;;
72427;SDS011;60419;48.880;18.036;2023-04-03T07:05:36;8.02;;;3.55;;
72427;SDS011;60419;48.880;18.036;2023-04-03T07:08:21;7.10;;;3.75;;
72427;SDS011;60419;48.880;18.036;2023-04-03T07:11:09;6.07;;;3.35;;
72427;SDS011;60419;48.880;18.036;2023-04-03T07:13:55;7.32;;;3.78;;
72427;SDS011;60419;48.880;18.036;2023-04-03T07:16:41;6.05;;;2.97;;
72427;SDS011;60419;48.880;18.036;2023-04-03T07:19:27;6.75;;;3.47;;
72427;SDS011;60419;48.880;18.036;2023-04-03T07:22:13;5.15;;;2.80;;
72427;SDS011;60419;48.880;18.036;2023-04-03T07:24:58;6.93;;;3.28;;
72427;SDS011;60419;48.880;18.036;2023-04-03T07:27:47;4.50;;;2.75;;
72427;SDS011;60419;48.880;18.036;2023-04-03T07:30:34;5.43;;;3.20;;
72427;SDS011;60419;48.880;18.036;2023-04-03T07:33:22;7.30;;;3.35;;
72427;SDS011;60419;48.880;18.036;2023-04-03T07:36:09;4.90;;;3.00;;
72427;SDS011;60419;48.880;18.036;2023-04-03T07:38:55;5.95;;;3.10;;
72427;SDS011;60419;48.880;18.036;2023-04-03T07:41:41;6.40;;;3.13;;
72427;SDS011;60419;48.880;18.036;2023-04-03T07:44:26;5.93;;;3.50;;
72427;SDS011;60419;48.880;18.036;2023-04-03T07:47:12;7.97;;;3.30;;
72427;SDS011;60419;48.880;18.036;2023-04-03T07:49:59;5.85;;;3.35;;
72427;SDS011;60419;48.880;18.036;2023-04-03T07:52:45;9.50;;;3.67;;
72427;SDS011;60419;48.880;18.036;2023-04-03T07:55:31;7.30;;;3.40;;
72427;SDS011;60419;48.880;18.036;2023-04-03T07:58:17;7.97;;;3.65;;
72427;SDS011;60419;48.880;18.036;2023-04-03T08:01:03;5.13;;;2.78;;
72427;SDS011;60419;48.880;18.036;2023-04-03T08:03:49;6.63;;;3.08;;
72427;SDS011;60419;48.880;18.036;2023-04-03T08:06:34;4.57;;;2.70;;
72427;SDS011;60419;48.880;18.036;2023-04-03T08:09:21;6.03;;;2.90;;
72427;SDS011;60419;48.880;18.036;2023-04-03T08:12:07;7.32;;;2.53;;
72427;SDS011;60419;48.880;18.036;2023-04-03T08:14:52;4.40;;;2.78;;
72427;SDS011;60419;48.880;18.036;2023-04-03T08:17:37;3.92;;;2.47;;
72427;SDS011;60419;48.880;18.036;2023-04-03T08:20:23;5.95;;;2.88;;
72427;SDS011;60419;48.880;18.036;2023-04-03T08:23:08;5.85;;;2.70;;
72427;SDS011;60419;48.880;18.036;2023-04-03T08:25:55;4.97;;;2.60;;
72427;SDS011;60419;48.880;18.036;2023-04-03T08:28:40;4.65;;;2.75;;
72427;SDS011;60419;48.880;18.036;2023-04-03T08:31:26;4.93;;;3.08;;
72427;SDS011;60419;48.880;18.036;2023-04-03T08:34:12;5.45;;;2.75;;
72427;SDS011;60419;48.880;18.036;2023-04-03T08:36:59;4.00;;;2.20;;
72427;SDS011;60419;48.880;18.036;2023-04-03T08:39:45;6.35;;;2.78;;
72427;SDS011;60419;48.880;18.036;2023-04-03T08:48:20;5.68;;;2.92;;
72427;SDS011;60419;48.880;18.036;2023-04-03T08:51:16;4.30;;;2.90;;
72427;SDS011;60419;48.880;18.036;2023-04-03T08:54:06;6.10;;;2.88;;
72427;SDS011;60419;48.880;18.036;2023-04-03T08:57:04;7.07;;;2.80;;
72427;SDS011;60419;48.880;18.036;2023-04-03T08:59:53;5.65;;;3.00;;
72427;SDS011;60419;48.880;18.036;2023-04-03T09:02:42;5.50;;;2.83;;
72427;SDS011;60419;48.880;18.036;2023-04-03T09:05:54;6.70;;;2.85;;
72427;SDS011;60419;48.880;18.036;2023-04-03T09:08:46;5.63;;;2.95;;
72427;SDS011;60419;48.880;18.036;2023-04-03T09:23:58;5.45;;;2.28;;
72427;SDS011;60419;48.880;18.036;2023-04-03T09:29:31;5.20;;;2.28;;
72427;SDS011;60419;48.880;18.036;2023-04-03T09:32:27;4.88;;;2.08;;
72427;SDS011;60419;48.880;18.036;2023-04-03T09:35:28;4.43;;;2.10;;
72427;SDS011;60419;48.880;18.036;2023-04-03T09:38:17;4.35;;;2.25;;
72427;SDS011;60419;48.880;18.036;2023-04-03T09:41:13;4.50;;;2.13;;
72427;SDS011;60419;48.880;18.036;2023-04-03T09:44:02;4.35;;;2.42;;
72427;SDS011;60419;48.880;18.036;2023-04-03T09:46:47;5.82;;;2.35;;
72427;SDS011;60419;48.880;18.036;2023-04-03T09:49:34;2.88;;;1.80;;
72427;SDS011;60419;48.880;18.036;2023-04-03T09:52:23;5.95;;;2.10;;
72427;SDS011;60419;48.880;18.036;2023-04-03T09:58:04;4.60;;;2.72;;
72427;SDS011;60419;48.880;18.036;2023-04-03T10:01:09;3.08;;;2.10;;
72427;SDS011;60419;48.880;18.036;2023-04-03T10:04:11;2.78;;;1.60;;
72427;SDS011;60419;48.880;18.036;2023-04-03T10:06:56;3.80;;;2.10;;
72427;SDS011;60419;48.880;18.036;2023-04-03T10:09:42;4.53;;;2.42;;
72427;SDS011;60419;48.880;18.036;2023-04-03T10:12:43;4.38;;;1.92;;
72427;SDS011;60419;48.880;18.036;2023-04-03T10:15:28;4.40;;;2.55;;
72427;SDS011;60419;48.880;18.036;2023-04-03T10:24:51;3.15;;;1.95;;
72427;SDS011;60419;48.880;18.036;2023-04-03T10:40:02;4.30;;;2.33;;
72427;SDS011;60419;48.880;18.036;2023-04-03T10:49:08;4.40;;;2.20;;
72427;SDS011;60419;48.880;18.036;2023-04-03T10:52:20;5.45;;;2.25;;
72427;SDS011;60419;48.880;18.036;2023-04-03T10:58:21;4.85;;;2.15;;
72427;SDS011;60419;48.880;18.036;2023-04-03T11:01:16;3.22;;;1.90;;
72427;SDS011;60419;48.880;18.036;2023-04-03T11:04:06;4.30;;;2.28;;
72427;SDS011;60419;48.880;18.036;2023-04-03T11:07:28;4.90;;;2.15;;
72427;SDS011;60419;48.880;18.036;2023-04-03T11:10:13;5.55;;;2.05;;
72427;SDS011;60419;48.880;18.036;2023-04-03T11:13:12;4.07;;;2.08;;
72427;SDS011;60419;48.880;18.036;2023-04-03T11:16:01;3.47;;;1.92;;
72427;SDS011;60419;48.880;18.036;2023-04-03T11:19:33;3.85;;;2.00;;
72427;SDS011;60419;48.880;18.036;2023-04-03T11:28:01;5.57;;;3.00;;
72427;SDS011;60419;48.880;18.036;2023-04-03T11:36:42;6.65;;;2.55;;
72427;SDS011;60419;48.880;18.036;2023-04-03T11:39:34;3.30;;;1.80;;
72427;SDS011;60419;48.880;18.036;2023-04-03T11:42:38;3.88;;;1.92;;
72427;SDS011;60419;48.880;18.036;2023-04-03T11:45:29;5.10;;;1.63;;
72427;SDS011;60419;48.880;18.036;2023-04-03T12:01:10;3.63;;;1.73;;
72427;SDS011;60419;48.880;18.036;2023-04-03T12:03:57;6.35;;;1.77;;
72427;SDS011;60419;48.880;18.036;2023-04-03T12:12:35;4.85;;;2.40;;
72427;SDS011;60419;48.880;18.036;2023-04-03T12:15:41;4.63;;;1.58;;
72427;SDS011;60419;48.880;18.036;2023-04-03T12:33:26;3.58;;;1.60;;
72427;SDS011;60419;48.880;18.036;2023-04-03T12:36:14;3.28;;;1.30;;
72427;SDS011;60419;48.880;18.036;2023-04-03T12:39:21;3.78;;;1.55;;
72427;SDS011;60419;48.880;18.036;2023-04-03T12:42:42;4.10;;;1.90;;
72427;SDS011;60419;48.880;18.036;2023-04-03T12:45:29;2.42;;;1.23;;
72427;SDS011;60419;48.880;18.036;2023-04-03T12:48:28;2.63;;;1.38;;
72427;SDS011;60419;48.880;18.036;2023-04-03T12:51:21;4.10;;;1.55;;
72427;SDS011;60419;48.880;18.036;2023-04-03T12:54:34;3.60;;;1.60;;
72427;SDS011;60419;48.880;18.036;2023-04-03T12:57:25;2.78;;;1.50;;
72427;SDS011;60419;48.880;18.036;2023-04-03T13:00:18;2.42;;;1.20;;
72427;SDS011;60419;48.880;18.036;2023-04-03T13:06:06;3.00;;;1.50;;
72427;SDS011;60419;48.880;18.036;2023-04-03T13:08:55;3.03;;;1.73;;
72427;SDS011;60419;48.880;18.036;2023-04-03T13:11:42;3.08;;;1.52;;
72427;SDS011;60419;48.880;18.036;2023-04-03T13:14:30;2.72;;;1.38;;
72427;SDS011;60419;48.880;18.036;2023-04-03T13:17:16;2.60;;;1.48;;
72427;SDS011;60419;48.880;18.036;2023-04-03T13:20:17;3.67;;;1.50;;
72427;SDS011;60419;48.880;18.036;2023-04-03T13:23:06;3.40;;;1.50;;
72427;SDS011;60419;48.880;18.036;2023-04-03T13:25:54;3.42;;;1.70;;
72427;SDS011;60419;48.880;18.036;2023-04-03T13:28:40;3.65;;;1.63;;
72427;SDS011;60419;48.880;18.036;2023-04-03T13:31:27;3.25;;;1.20;;
72427;SDS011;60419;48.880;18.036;2023-04-03T13:34:16;2.08;;;1.20;;
72427;SDS011;60419;48.880;18.036;2023-04-03T13:37:04;2.40;;;1.20;;
72427;SDS011;60419;48.880;18.036;2023-04-03T13:39:56;4.22;;;1.60;;
72427;SDS011;60419;48.880;18.036;2023-04-03T13:43:17;2.45;;;1.30;;
72427;SDS011;60419;48.880;18.036;2023-04-03T13:46:20;2.90;;;1.48;;
72427;SDS011;60419;48.880;18.036;2023-04-03T14:04:45;3.03;;;1.30;;
72427;SDS011;60419;48.880;18.036;2023-04-03T14:07:30;3.38;;;1.60;;
72427;SDS011;60419;48.880;18.036;2023-04-03T14:10:16;4.07;;;1.60;;
72427;SDS011;60419;48.880;18.036;2023-04-03T14:13:01;3.72;;;1.58;;
72427;SDS011;60419;48.880;18.036;2023-04-03T14:15:48;3.03;;;1.40;;
72427;SDS011;60419;48.880;18.036;2023-04-03T14:18:35;3.40;;;1.65;;
72427;SDS011;60419;48.880;18.036;2023-04-03T14:21:21;3.85;;;1.65;;
72427;SDS011;60419;48.880;18.036;2023-04-03T14:24:08;3.03;;;1.63;;
72427;SDS011;60419;48.880;18.036;2023-04-03T14:26:54;3.67;;;1.88;;
72427;SDS011;60419;48.880;18.036;2023-04-03T14:29:40;3.72;;;1.60;;
72427;SDS011;60419;48.880;18.036;2023-04-03T14:32:26;3.30;;;1.38;;
72427;SDS011;60419;48.880;18.036;2023-04-03T14:35:12;3.40;;;1.77;;
72427;SDS011;60419;48.880;18.036;2023-04-03T14:37:58;3.72;;;1.50;;
72427;SDS011;60419;48.880;18.036;2023-04-03T14:40:43;3.15;;;1.40;;
72427;SDS011;60419;48.880;18.036;2023-04-03T14:43:29;4.55;;;1.45;;
72427;SDS011;60419;48.880;18.036;2023-04-03T14:46:19;3.72;;;1.70;;
72427;SDS011;60419;48.880;18.036;2023-04-03T14:49:15;3.78;;;1.42;;
72427;SDS011;60419;48.880;18.036;2023-04-03T14:52:02;5.30;;;1.83;;
72427;SDS011;60419;48.880;18.036;2023-04-03T14:54:48;2.92;;;1.92;;
72427;SDS011;60419;48.880;18.036;2023-04-03T14:57:34;3.33;;;1.58;;
72427;SDS011;60419;48.880;18.036;2023-04-03T15:00:22;5.65;;;2.03;;
72427;SDS011;60419;48.880;18.036;2023-04-03T15:03:20;3.25;;;1.50;;
72427;SDS011;60419;48.880;18.036;2023-04-03T15:06:08;3.85;;;1.77;;
72427;SDS011;60419;48.880;18.036;2023-04-03T15:08:56;3.17;;;1.55;;
72427;SDS011;60419;48.880;18.036;2023-04-03T15:11:42;5.45;;;1.98;;
72427;SDS011;60419;48.880;18.036;2023-04-03T15:14:27;4.65;;;1.73;;
72427;SDS011;60419;48.880;18.036;2023-04-03T15:17:16;4.10;;;1.83;;
72427;SDS011;60419;48.880;18.036;2023-04-03T15:20:10;4.15;;;2.08;;
72427;SDS011;60419;48.880;18.036;2023-04-03T15:22:58;3.13;;;1.70;;
72427;SDS011;60419;48.880;18.036;2023-04-03T15:25:47;2.85;;;1.65;;
72427;SDS011;60419;48.880;18.036;2023-04-03T15:28:35;3.30;;;1.88;;
72427;SDS011;60419;48.880;18.036;2023-04-03T15:31:22;4.45;;;2.05;;
72427;SDS011;60419;48.880;18.036;2023-04-03T15:34:08;3.58;;;1.63;;
72427;SDS011;60419;48.880;18.036;2023-04-03T15:36:53;4.18;;;1.80;;
72427;SDS011;60419;48.880;18.036;2023-04-03T15:39:39;3.17;;;1.80;;
72427;SDS011;60419;48.880;18.036;2023-04-03T15:42:24;3.22;;;1.80;;
72427;SDS011;60419;48.880;18.036;2023-04-03T15:45:10;4.97;;;2.13;;
72427;SDS011;60419;48.880;18.036;2023-04-03T15:47:56;3.17;;;1.70;;
72427;SDS011;60419;48.880;18.036;2023-04-03T15:50:42;5.70;;;2.00;;
72427;SDS011;60419;48.880;18.036;2023-04-03T15:53:27;4.60;;;2.28;;
72427;SDS011;60419;48.880;18.036;2023-04-03T15:56:12;4.38;;;2.20;;
72427;SDS011;60419;48.880;18.036;2023-04-03T15:58:58;4.63;;;2.38;;
72427;SDS011;60419;48.880;18.036;2023-04-03T16:01:43;4.68;;;2.30;;
72427;SDS011;60419;48.880;18.036;2023-04-03T16:04:29;5.50;;;1.83;;
72427;SDS011;60419;48.880;18.036;2023-04-03T16:07:15;3.75;;;2.30;;
72427;SDS011;60419;48.880;18.036;2023-04-03T16:10:00;3.75;;;1.60;;
72427;SDS011;60419;48.880;18.036;2023-04-03T16:12:45;7.68;;;2.17;;
72427;SDS011;60419;48.880;18.036;2023-04-03T16:15:31;4.43;;;2.25;;
72427;SDS011;60419;48.880;18.036;2023-04-03T16:18:19;2.97;;;1.98;;
72427;SDS011;60419;48.880;18.036;2023-04-03T16:21:05;4.85;;;2.60;;
72427;SDS011;60419;48.880;18.036;2023-04-03T16:23:52;3.75;;;2.15;;
72427;SDS011;60419;48.880;18.036;2023-04-03T16:26:38;4.15;;;1.70;;
72427;SDS011;60419;48.880;18.036;2023-04-03T16:29:24;3.40;;;1.80;;
72427;SDS011;60419;48.880;18.036;2023-04-03T16:32:09;4.78;;;2.03;;
72427;SDS011;60419;48.880;18.036;2023-04-03T16:34:55;4.68;;;1.95;;
72427;SDS011;60419;48.880;18.036;2023-04-03T16:37:41;5.40;;;2.00;;
72427;SDS011;60419;48.880;18.036;2023-04-03T16:40:27;4.30;;;2.15;;
72427;SDS011;60419;48.880;18.036;2023-04-03T16:43:12;6.53;;;2.70;;
72427;SDS011;60419;48.880;18.036;2023-04-03T16:45:57;4.22;;;2.25;;
72427;SDS011;60419;48.880;18.036;2023-04-03T16:48:43;5.38;;;2.63;;
72427;SDS011;60419;48.880;18.036;2023-04-03T16:51:28;3.95;;;2.10;;
72427;SDS011;60419;48.880;18.036;2023-04-03T16:54:14;6.68;;;2.35;;
72427;SDS011;60419;48.880;18.036;2023-04-03T16:57:00;4.72;;;2.08;;
72427;SDS011;60419;48.880;18.036;2023-04-03T16:59:45;5.85;;;2.28;;
72427;SDS011;60419;48.880;18.036;2023-04-03T17:02:31;5.82;;;1.90;;
72427;SDS011;60419;48.880;18.036;2023-04-03T17:05:16;6.00;;;2.53;;
72427;SDS011;60419;48.880;18.036;2023-04-03T17:08:02;4.10;;;2.28;;
72427;SDS011;60419;48.880;18.036;2023-04-03T17:10:47;5.38;;;2.33;;
72427;SDS011;60419;48.880;18.036;2023-04-03T17:13:32;6.00;;;2.63;;
72427;SDS011;60419;48.880;18.036;2023-04-03T17:16:18;5.43;;;2.70;;
72427;SDS011;60419;48.880;18.036;2023-04-03T17:19:04;9.93;;;2.53;;
72427;SDS011;60419;48.880;18.036;2023-04-03T17:21:50;4.95;;;2.05;;
72427;SDS011;60419;48.880;18.036;2023-04-03T17:24:36;6.28;;;2.55;;
72427;SDS011;60419;48.880;18.036;2023-04-03T17:27:21;5.93;;;2.42;;
72427;SDS011;60419;48.880;18.036;2023-04-03T17:30:07;5.30;;;2.38;;
72427;SDS011;60419;48.880;18.036;2023-04-03T17:32:53;4.90;;;2.33;;
72427;SDS011;60419;48.880;18.036;2023-04-03T17:35:38;4.65;;;2.28;;
72427;SDS011;60419;48.880;18.036;2023-04-03T17:38:24;5.78;;;2.83;;
72427;SDS011;60419;48.880;18.036;2023-04-03T17:41:09;4.82;;;2.17;;
72427;SDS011;60419;48.880;18.036;2023-04-03T17:43:55;6.20;;;2.42;;
72427;SDS011;60419;48.880;18.036;2023-04-03T17:46:41;6.90;;;1.92;;
72427;SDS011;60419;48.880;18.036;2023-04-03T17:49:26;5.68;;;2.40;;
72427;SDS011;60419;48.880;18.036;2023-04-03T17:52:11;4.15;;;2.40;;
72427;SDS011;60419;48.880;18.036;2023-04-03T17:54:57;5.63;;;2.60;;
72427;SDS011;60419;48.880;18.036;2023-04-03T17:57:42;6.07;;;2.20;;
72427;SDS011;60419;48.880;18.036;2023-04-03T18:00:28;4.72;;;2.10;;
72427;SDS011;60419;48.880;18.036;2023-04-03T18:03:13;6.18;;;3.00;;
72427;SDS011;60419;48.880;18.036;2023-04-03T18:06:01;5.95;;;2.50;;
72427;SDS011;60419;48.880;18.036;2023-04-03T18:08:51;8.73;;;2.95;;
72427;SDS011;60419;48.880;18.036;2023-04-03T18:11:43;5.13;;;2.30;;
72427;SDS011;60419;48.880;18.036;2023-04-03T18:14:30;5.00;;;2.47;;
72427;SDS011;60419;48.880;18.036;2023-04-03T18:17:17;4.47;;;2.53;;
72427;SDS011;60419;48.880;18.036;2023-04-03T18:20:03;5.38;;;2.70;;
72427;SDS011;60419;48.880;18.036;2023-04-03T18:22:49;4.18;;;2.45;;
72427;SDS011;60419;48.880;18.036;2023-04-03T18:25:36;4.07;;;2.47;;
72427;SDS011;60419;48.880;18.036;2023-04-03T18:28:22;4.18;;;2.38;;
72427;SDS011;60419;48.880;18.036;2023-04-03T18:31:08;3.95;;;2.25;;
72427;SDS011;60419;48.880;18.036;2023-04-03T18:33:55;3.25;;;1.90;;